sensor_id;sensor_type;location;lat;lon;timestamp;P1;durP1;ratioP1;P2;durP2;ratioP2
18019;SDS011;9135;48.362;10.878;2023-08-17T00:01:41;1.67;;;1.58;;
18019;SDS011;9135;48.362;10.878;2023-08-17T00:04:07;2.00;;;1.90;;
18019;SDS011;9135;48.362;10.878;2023-08-17T00:06:33;1.63;;;1.52;;
18019;SDS011;9135;48.362;10.878;2023-08-17T00:08:59;1.65;;;1.55;;
18019;SDS011;9135;48.362;10.878;2023-08-17T00:11:26;1.48;;;1.45;;
18019;SDS011;9135;48.362;10.878;2023-08-17T00:13:52;1.30;;;1.30;;
18019;SDS011;9135;48.362;10.878;2023-08-17T00:16:18;1.38;;;1.38;;
18019;SDS011;9135;48.362;10.878;2023-08-17T00:18:44;1.52;;;1.48;;
18019;SDS011;9135;48.362;10.878;2023-08-17T00:21:10;1.38;;;1.38;;
18019;SDS011;9135;48.362;10.878;2023-08-17T00:23:36;1.63;;;1.52;;
18019;SDS011;9135;48.362;10.878;2023-08-17T00:26:02;1.33;;;1.20;;
18019;SDS011;9135;48.362;10.878;2023-08-17T00:28:28;2.53;;;1.65;;
18019;SDS011;9135;48.362;10.878;2023-08-17T00:30:54;1.50;;;1.40;;
18019;SDS011;9135;48.362;10.878;2023-08-17T00:33:20;1.50;;;1.40;;
18019;SDS011;9135;48.362;10.878;2023-08-17T00:35:46;1.88;;;1.77;;
18019;SDS011;9135;48.362;10.878;2023-08-17T00:38:12;1.73;;;1.58;;
18019;SDS011;9135;48.362;10.878;2023-08-17T00:40:38;1.33;;;1.23;;
18019;SDS011;9135;48.362;10.878;2023-08-17T00:43:04;2.05;;;1.50;;
18019;SDS011;9135;48.362;10.878;2023-08-17T00:45:31;2.08;;;1.50;;
18019;SDS011;9135;48.362;10.878;2023-08-17T00:47:57;2.33;;;1.98;;
18019;SDS011;9135;48.362;10.878;2023-08-17T00:50:24;2.63;;;2.42;;
18019;SDS011;9135;48.362;10.878;2023-08-17T00:52:51;1.23;;;1.13;;
18019;SDS011;9135;48.362;10.878;2023-08-17T00:55:18;1.13;;;1.08;;
18019;SDS011;9135;48.362;10.878;2023-08-17T00:57:44;1.77;;;1.67;;
18019;SDS011;9135;48.362;10.878;2023-08-17T01:00:11;1.40;;;1.40;;
18019;SDS011;9135;48.362;10.878;2023-08-17T01:02:38;0.80;;;0.80;;
18019;SDS011;9135;48.362;10.878;2023-08-17T01:05:04;1.35;;;1.35;;
18019;SDS011;9135;48.362;10.878;2023-08-17T01:07:31;1.77;;;1.67;;
18019;SDS011;9135;48.362;10.878;2023-08-17T01:09:57;1.10;;;1.10;;
18019;SDS011;9135;48.362;10.878;2023-08-17T01:12:29;1.10;;;1.10;;
18019;SDS011;9135;48.362;10.878;2023-08-17T01:14:59;1.92;;;1.83;;
18019;SDS011;9135;48.362;10.878;2023-08-17T01:17:29;1.10;;;1.10;;
18019;SDS011;9135;48.362;10.878;2023-08-17T01:19:58;2.10;;;2.00;;
18019;SDS011;9135;48.362;10.878;2023-08-17T01:22:28;4.97;;;1.17;;
18019;SDS011;9135;48.362;10.878;2023-08-17T01:24:57;1.48;;;1.48;;
18019;SDS011;9135;48.362;10.878;2023-08-17T01:27:24;0.75;;;0.75;;
18019;SDS011;9135;48.362;10.878;2023-08-17T01:29:50;2.50;;;1.90;;
18019;SDS011;9135;48.362;10.878;2023-08-17T01:35:28;1.58;;;1.58;;
18019;SDS011;9135;48.362;10.878;2023-08-17T01:38:00;1.60;;;1.50;;
18019;SDS011;9135;48.362;10.878;2023-08-17T01:40:29;1.77;;;1.67;;
18019;SDS011;9135;48.362;10.878;2023-08-17T01:42:57;1.58;;;1.52;;
18019;SDS011;9135;48.362;10.878;2023-08-17T01:45:24;0.88;;;0.88;;
18019;SDS011;9135;48.362;10.878;2023-08-17T01:47:50;2.55;;;1.70;;
18019;SDS011;9135;48.362;10.878;2023-08-17T01:50:16;2.22;;;1.80;;
18019;SDS011;9135;48.362;10.878;2023-08-17T01:52:42;0.85;;;0.85;;
18019;SDS011;9135;48.362;10.878;2023-08-17T01:55:08;1.02;;;1.02;;
18019;SDS011;9135;48.362;10.878;2023-08-17T01:57:38;1.20;;;1.17;;
18019;SDS011;9135;48.362;10.878;2023-08-17T02:00:06;1.08;;;1.08;;
18019;SDS011;9135;48.362;10.878;2023-08-17T02:02:35;0.93;;;0.93;;
18019;SDS011;9135;48.362;10.878;2023-08-17T02:05:01;0.85;;;0.85;;
18019;SDS011;9135;48.362;10.878;2023-08-17T02:07:28;5.78;;;2.20;;
18019;SDS011;9135;48.362;10.878;2023-08-17T02:09:54;1.73;;;1.38;;
18019;SDS011;9135;48.362;10.878;2023-08-17T02:12:20;1.67;;;1.58;;
18019;SDS011;9135;48.362;10.878;2023-08-17T02:14:46;1.27;;;1.23;;
18019;SDS011;9135;48.362;10.878;2023-08-17T02:17:12;1.13;;;1.13;;
18019;SDS011;9135;48.362;10.878;2023-08-17T02:19:41;3.83;;;1.70;;
18019;SDS011;9135;48.362;10.878;2023-08-17T02:22:07;1.85;;;1.75;;
18019;SDS011;9135;48.362;10.878;2023-08-17T02:24:33;1.83;;;1.73;;
18019;SDS011;9135;48.362;10.878;2023-08-17T02:26:59;2.35;;;2.15;;
18019;SDS011;9135;48.362;10.878;2023-08-17T02:29:25;1.88;;;1.77;;
18019;SDS011;9135;48.362;10.878;2023-08-17T02:31:51;1.75;;;1.65;;
18019;SDS011;9135;48.362;10.878;2023-08-17T02:34:17;1.55;;;1.55;;
18019;SDS011;9135;48.362;10.878;2023-08-17T02:36:43;1.50;;;1.40;;
18019;SDS011;9135;48.362;10.878;2023-08-17T02:39:09;2.92;;;2.38;;
18019;SDS011;9135;48.362;10.878;2023-08-17T02:41:35;1.98;;;1.88;;
18019;SDS011;9135;48.362;10.878;2023-08-17T02:44:01;2.78;;;1.77;;
18019;SDS011;9135;48.362;10.878;2023-08-17T02:46:27;3.17;;;2.88;;
18019;SDS011;9135;48.362;10.878;2023-08-17T02:48:54;1.80;;;1.70;;
18019;SDS011;9135;48.362;10.878;2023-08-17T02:51:20;2.03;;;1.90;;
18019;SDS011;9135;48.362;10.878;2023-08-17T02:53:46;2.00;;;1.90;;
18019;SDS011;9135;48.362;10.878;2023-08-17T02:56:12;3.13;;;1.75;;
18019;SDS011;9135;48.362;10.878;2023-08-17T02:58:38;1.60;;;1.50;;
18019;SDS011;9135;48.362;10.878;2023-08-17T03:01:08;2.78;;;2.03;;
18019;SDS011;9135;48.362;10.878;2023-08-17T03:03:34;2.15;;;2.05;;
18019;SDS011;9135;48.362;10.878;2023-08-17T03:06:04;2.25;;;2.03;;
18019;SDS011;9135;48.362;10.878;2023-08-17T03:08:31;1.85;;;1.73;;
18019;SDS011;9135;48.362;10.878;2023-08-17T03:10:57;1.75;;;1.65;;
18019;SDS011;9135;48.362;10.878;2023-08-17T03:13:23;1.80;;;1.70;;
18019;SDS011;9135;48.362;10.878;2023-08-17T03:15:49;3.95;;;2.17;;
18019;SDS011;9135;48.362;10.878;2023-08-17T03:18:15;4.93;;;3.38;;
18019;SDS011;9135;48.362;10.878;2023-08-17T03:20:41;3.75;;;1.88;;
18019;SDS011;9135;48.362;10.878;2023-08-17T03:23:07;1.67;;;1.58;;
18019;SDS011;9135;48.362;10.878;2023-08-17T03:25:34;1.58;;;1.48;;
18019;SDS011;9135;48.362;10.878;2023-08-17T03:28:00;2.70;;;1.90;;
18019;SDS011;9135;48.362;10.878;2023-08-17T03:30:26;2.15;;;2.05;;
18019;SDS011;9135;48.362;10.878;2023-08-17T03:32:52;1.88;;;1.77;;
18019;SDS011;9135;48.362;10.878;2023-08-17T03:35:18;2.83;;;2.35;;
18019;SDS011;9135;48.362;10.878;2023-08-17T03:37:44;2.90;;;2.38;;
18019;SDS011;9135;48.362;10.878;2023-08-17T03:40:10;6.30;;;2.10;;
18019;SDS011;9135;48.362;10.878;2023-08-17T03:42:37;1.75;;;1.65;;
18019;SDS011;9135;48.362;10.878;2023-08-17T03:45:03;1.63;;;1.58;;
18019;SDS011;9135;48.362;10.878;2023-08-17T03:47:29;2.78;;;2.40;;
18019;SDS011;9135;48.362;10.878;2023-08-17T03:49:55;2.30;;;2.10;;
18019;SDS011;9135;48.362;10.878;2023-08-17T03:52:21;2.25;;;1.77;;
18019;SDS011;9135;48.362;10.878;2023-08-17T03:54:47;1.88;;;1.77;;
18019;SDS011;9135;48.362;10.878;2023-08-17T03:57:13;3.10;;;1.83;;
18019;SDS011;9135;48.362;10.878;2023-08-17T03:59:40;2.00;;;1.90;;
18019;SDS011;9135;48.362;10.878;2023-08-17T04:02:07;1.85;;;1.70;;
18019;SDS011;9135;48.362;10.878;2023-08-17T04:04:33;2.33;;;2.20;;
18019;SDS011;9135;48.362;10.878;2023-08-17T04:06:59;1.58;;;1.52;;
18019;SDS011;9135;48.362;10.878;2023-08-17T04:09:25;4.05;;;2.10;;
18019;SDS011;9135;48.362;10.878;2023-08-17T04:11:51;1.25;;;1.25;;
18019;SDS011;9135;48.362;10.878;2023-08-17T04:14:17;2.42;;;2.28;;
18019;SDS011;9135;48.362;10.878;2023-08-17T04:16:43;2.13;;;1.55;;
18019;SDS011;9135;48.362;10.878;2023-08-17T04:19:09;1.33;;;1.33;;
18019;SDS011;9135;48.362;10.878;2023-08-17T04:21:35;1.92;;;1.83;;
18019;SDS011;9135;48.362;10.878;2023-08-17T04:24:01;1.73;;;1.63;;
18019;SDS011;9135;48.362;10.878;2023-08-17T04:26:27;3.22;;;2.08;;
18019;SDS011;9135;48.362;10.878;2023-08-17T04:28:53;2.67;;;1.48;;
18019;SDS011;9135;48.362;10.878;2023-08-17T04:31:19;2.70;;;2.30;;
18019;SDS011;9135;48.362;10.878;2023-08-17T04:33:45;2.40;;;2.20;;
18019;SDS011;9135;48.362;10.878;2023-08-17T04:36:11;9.07;;;2.70;;
18019;SDS011;9135;48.362;10.878;2023-08-17T04:38:37;1.90;;;1.80;;
18019;SDS011;9135;48.362;10.878;2023-08-17T04:41:03;3.10;;;2.53;;
18019;SDS011;9135;48.362;10.878;2023-08-17T04:43:29;2.03;;;1.92;;
18019;SDS011;9135;48.362;10.878;2023-08-17T04:45:55;1.65;;;1.58;;
18019;SDS011;9135;48.362;10.878;2023-08-17T04:48:21;2.20;;;1.85;;
18019;SDS011;9135;48.362;10.878;2023-08-17T04:50:48;8.60;;;3.13;;
18019;SDS011;9135;48.362;10.878;2023-08-17T04:53:14;3.72;;;2.10;;
18019;SDS011;9135;48.362;10.878;2023-08-17T04:55:40;2.15;;;1.98;;
18019;SDS011;9135;48.362;10.878;2023-08-17T04:58:06;0.88;;;0.88;;
18019;SDS011;9135;48.362;10.878;2023-08-17T05:00:32;2.95;;;2.65;;
18019;SDS011;9135;48.362;10.878;2023-08-17T05:02:58;2.67;;;2.47;;
18019;SDS011;9135;48.362;10.878;2023-08-17T05:05:24;1.90;;;1.80;;
18019;SDS011;9135;48.362;10.878;2023-08-17T05:07:52;3.47;;;2.47;;
18019;SDS011;9135;48.362;10.878;2023-08-17T05:10:18;2.00;;;1.83;;
18019;SDS011;9135;48.362;10.878;2023-08-17T05:12:44;4.10;;;2.33;;
18019;SDS011;9135;48.362;10.878;2023-08-17T05:15:11;2.40;;;2.20;;
18019;SDS011;9135;48.362;10.878;2023-08-17T05:17:37;2.53;;;2.33;;
18019;SDS011;9135;48.362;10.878;2023-08-17T05:20:04;3.13;;;2.10;;
18019;SDS011;9135;48.362;10.878;2023-08-17T05:22:30;2.10;;;1.77;;
18019;SDS011;9135;48.362;10.878;2023-08-17T05:24:56;2.42;;;1.83;;
18019;SDS011;9135;48.362;10.878;2023-08-17T05:27:22;1.75;;;1.67;;
18019;SDS011;9135;48.362;10.878;2023-08-17T05:29:48;2.13;;;2.03;;
18019;SDS011;9135;48.362;10.878;2023-08-17T05:32:14;3.10;;;2.80;;
18019;SDS011;9135;48.362;10.878;2023-08-17T05:34:40;3.03;;;2.72;;
18019;SDS011;9135;48.362;10.878;2023-08-17T05:37:06;2.42;;;2.20;;
18019;SDS011;9135;48.362;10.878;2023-08-17T05:39:33;2.28;;;2.17;;
18019;SDS011;9135;48.362;10.878;2023-08-17T05:41:59;1.83;;;1.70;;
18019;SDS011;9135;48.362;10.878;2023-08-17T05:44:25;2.72;;;2.53;;
18019;SDS011;9135;48.362;10.878;2023-08-17T05:46:51;3.83;;;2.63;;
18019;SDS011;9135;48.362;10.878;2023-08-17T05:49:17;1.70;;;1.60;;
18019;SDS011;9135;48.362;10.878;2023-08-17T05:51:43;2.20;;;2.10;;
18019;SDS011;9135;48.362;10.878;2023-08-17T05:54:09;2.05;;;1.98;;
18019;SDS011;9135;48.362;10.878;2023-08-17T05:56:35;4.82;;;3.10;;
18019;SDS011;9135;48.362;10.878;2023-08-17T05:59:01;3.88;;;3.03;;
18019;SDS011;9135;48.362;10.878;2023-08-17T06:01:27;2.53;;;2.17;;
18019;SDS011;9135;48.362;10.878;2023-08-17T06:03:53;2.65;;;2.45;;
18019;SDS011;9135;48.362;10.878;2023-08-17T06:06:19;5.25;;;2.75;;
18019;SDS011;9135;48.362;10.878;2023-08-17T06:08:45;1.88;;;1.77;;
18019;SDS011;9135;48.362;10.878;2023-08-17T06:11:11;2.97;;;2.67;;
18019;SDS011;9135;48.362;10.878;2023-08-17T06:13:37;2.33;;;2.22;;
18019;SDS011;9135;48.362;10.878;2023-08-17T06:16:03;2.22;;;1.90;;
18019;SDS011;9135;48.362;10.878;2023-08-17T06:18:30;2.03;;;1.92;;
18019;SDS011;9135;48.362;10.878;2023-08-17T06:20:56;3.20;;;2.92;;
18019;SDS011;9135;48.362;10.878;2023-08-17T06:23:22;4.80;;;4.40;;
18019;SDS011;9135;48.362;10.878;2023-08-17T06:25:48;2.88;;;2.65;;
18019;SDS011;9135;48.362;10.878;2023-08-17T06:28:14;3.17;;;2.50;;
18019;SDS011;9135;48.362;10.878;2023-08-17T06:30:40;6.68;;;3.63;;
18019;SDS011;9135;48.362;10.878;2023-08-17T06:33:06;5.05;;;4.38;;
18019;SDS011;9135;48.362;10.878;2023-08-17T06:35:32;5.20;;;3.55;;
18019;SDS011;9135;48.362;10.878;2023-08-17T06:37:58;4.15;;;3.85;;
18019;SDS011;9135;48.362;10.878;2023-08-17T06:40:24;3.88;;;3.60;;
18019;SDS011;9135;48.362;10.878;2023-08-17T06:42:50;3.03;;;2.67;;
18019;SDS011;9135;48.362;10.878;2023-08-17T06:45:19;4.13;;;3.75;;
18019;SDS011;9135;48.362;10.878;2023-08-17T06:47:45;3.40;;;3.13;;
18019;SDS011;9135;48.362;10.878;2023-08-17T06:50:13;3.17;;;2.92;;
18019;SDS011;9135;48.362;10.878;2023-08-17T06:52:40;8.02;;;3.10;;
18019;SDS011;9135;48.362;10.878;2023-08-17T06:55:06;5.00;;;3.55;;
18019;SDS011;9135;48.362;10.878;2023-08-17T06:57:32;4.70;;;4.30;;
18019;SDS011;9135;48.362;10.878;2023-08-17T06:59:58;3.67;;;3.38;;
18019;SDS011;9135;48.362;10.878;2023-08-17T07:02:24;3.47;;;3.05;;
18019;SDS011;9135;48.362;10.878;2023-08-17T07:04:50;7.38;;;3.65;;
18019;SDS011;9135;48.362;10.878;2023-08-17T07:07:16;4.20;;;3.83;;
18019;SDS011;9135;48.362;10.878;2023-08-17T07:09:42;4.15;;;3.75;;
18019;SDS011;9135;48.362;10.878;2023-08-17T07:12:08;4.13;;;3.72;;
18019;SDS011;9135;48.362;10.878;2023-08-17T07:14:34;3.53;;;3.17;;
18019;SDS011;9135;48.362;10.878;2023-08-17T07:17:00;3.15;;;2.92;;
18019;SDS011;9135;48.362;10.878;2023-08-17T07:19:26;2.85;;;2.65;;
18019;SDS011;9135;48.362;10.878;2023-08-17T07:21:52;4.82;;;3.53;;
18019;SDS011;9135;48.362;10.878;2023-08-17T07:24:19;4.88;;;3.53;;
18019;SDS011;9135;48.362;10.878;2023-08-17T07:26:45;4.60;;;3.38;;
18019;SDS011;9135;48.362;10.878;2023-08-17T07:29:11;4.35;;;3.95;;
18019;SDS011;9135;48.362;10.878;2023-08-17T07:31:40;2.42;;;2.28;;
18019;SDS011;9135;48.362;10.878;2023-08-17T07:34:06;3.08;;;2.88;;
18019;SDS011;9135;48.362;10.878;2023-08-17T07:36:33;2.83;;;2.55;;
18019;SDS011;9135;48.362;10.878;2023-08-17T07:38:59;5.20;;;2.97;;
18019;SDS011;9135;48.362;10.878;2023-08-17T07:41:26;5.38;;;2.53;;
18019;SDS011;9135;48.362;10.878;2023-08-17T07:43:52;6.60;;;2.83;;
18019;SDS011;9135;48.362;10.878;2023-08-17T07:46:18;9.40;;;2.63;;
18019;SDS011;9135;48.362;10.878;2023-08-17T07:48:45;3.97;;;2.28;;
18019;SDS011;9135;48.362;10.878;2023-08-17T07:51:11;2.63;;;2.42;;
18019;SDS011;9135;48.362;10.878;2023-08-17T07:53:37;3.70;;;2.17;;
18019;SDS011;9135;48.362;10.878;2023-08-17T07:56:03;5.18;;;3.05;;
18019;SDS011;9135;48.362;10.878;2023-08-17T07:58:29;2.45;;;2.33;;
18019;SDS011;9135;48.362;10.878;2023-08-17T08:00:55;3.60;;;2.28;;
18019;SDS011;9135;48.362;10.878;2023-08-17T08:03:21;2.13;;;2.03;;
18019;SDS011;9135;48.362;10.878;2023-08-17T08:05:47;2.97;;;2.55;;
18019;SDS011;9135;48.362;10.878;2023-08-17T08:08:13;2.28;;;2.08;;
18019;SDS011;9135;48.362;10.878;2023-08-17T08:10:39;1.85;;;1.75;;
18019;SDS011;9135;48.362;10.878;2023-08-17T08:13:06;2.03;;;1.92;;
18019;SDS011;9135;48.362;10.878;2023-08-17T08:15:32;2.05;;;1.92;;
18019;SDS011;9135;48.362;10.878;2023-08-17T08:17:59;2.70;;;2.55;;
18019;SDS011;9135;48.362;10.878;2023-08-17T08:20:25;2.28;;;1.85;;
18019;SDS011;9135;48.362;10.878;2023-08-17T08:22:51;2.40;;;2.20;;
18019;SDS011;9135;48.362;10.878;2023-08-17T08:25:17;3.22;;;2.22;;
18019;SDS011;9135;48.362;10.878;2023-08-17T08:27:43;3.28;;;2.90;;
18019;SDS011;9135;48.362;10.878;2023-08-17T08:30:09;1.55;;;1.45;;
18019;SDS011;9135;48.362;10.878;2023-08-17T08:32:35;2.38;;;2.17;;
18019;SDS011;9135;48.362;10.878;2023-08-17T08:35:01;2.28;;;1.75;;
18019;SDS011;9135;48.362;10.878;2023-08-17T08:37:27;4.78;;;2.17;;
18019;SDS011;9135;48.362;10.878;2023-08-17T08:39:54;1.90;;;1.80;;
18019;SDS011;9135;48.362;10.878;2023-08-17T08:42:21;3.05;;;2.75;;
18019;SDS011;9135;48.362;10.878;2023-08-17T08:44:47;5.40;;;3.15;;
18019;SDS011;9135;48.362;10.878;2023-08-17T08:47:16;2.00;;;1.83;;
18019;SDS011;9135;48.362;10.878;2023-08-17T08:49:48;1.90;;;1.80;;
18019;SDS011;9135;48.362;10.878;2023-08-17T08:52:23;5.80;;;3.33;;
18019;SDS011;9135;48.362;10.878;2023-08-17T08:54:50;2.80;;;2.60;;
18019;SDS011;9135;48.362;10.878;2023-08-17T08:57:17;3.47;;;2.03;;
18019;SDS011;9135;48.362;10.878;2023-08-17T08:59:45;3.47;;;2.78;;
18019;SDS011;9135;48.362;10.878;2023-08-17T09:02:13;2.55;;;2.28;;
18019;SDS011;9135;48.362;10.878;2023-08-17T09:04:40;2.97;;;2.35;;
18019;SDS011;9135;48.362;10.878;2023-08-17T09:07:06;3.22;;;1.98;;
18019;SDS011;9135;48.362;10.878;2023-08-17T09:09:33;1.88;;;1.77;;
18019;SDS011;9135;48.362;10.878;2023-08-17T09:12:00;2.92;;;2.72;;
18019;SDS011;9135;48.362;10.878;2023-08-17T09:14:26;2.53;;;2.30;;
18019;SDS011;9135;48.362;10.878;2023-08-17T09:16:52;2.58;;;1.75;;
18019;SDS011;9135;48.362;10.878;2023-08-17T09:19:18;3.22;;;2.95;;
18019;SDS011;9135;48.362;10.878;2023-08-17T09:21:44;3.00;;;2.47;;
18019;SDS011;9135;48.362;10.878;2023-08-17T09:24:10;4.10;;;2.05;;
18019;SDS011;9135;48.362;10.878;2023-08-17T09:26:38;6.45;;;2.85;;
18019;SDS011;9135;48.362;10.878;2023-08-17T09:29:16;2.75;;;2.42;;
18019;SDS011;9135;48.362;10.878;2023-08-17T09:31:43;2.75;;;2.47;;
18019;SDS011;9135;48.362;10.878;2023-08-17T09:34:09;1.70;;;1.60;;
18019;SDS011;9135;48.362;10.878;2023-08-17T09:36:35;3.35;;;1.88;;
18019;SDS011;9135;48.362;10.878;2023-08-17T09:39:02;1.75;;;1.58;;
18019;SDS011;9135;48.362;10.878;2023-08-17T09:41:28;2.60;;;2.40;;
18019;SDS011;9135;48.362;10.878;2023-08-17T09:43:54;2.50;;;2.08;;
18019;SDS011;9135;48.362;10.878;2023-08-17T09:46:21;1.83;;;1.73;;
18019;SDS011;9135;48.362;10.878;2023-08-17T09:48:47;1.95;;;1.85;;
18019;SDS011;9135;48.362;10.878;2023-08-17T09:51:16;2.17;;;1.90;;
18019;SDS011;9135;48.362;10.878;2023-08-17T09:53:42;2.17;;;2.08;;
18019;SDS011;9135;48.362;10.878;2023-08-17T09:56:08;1.13;;;1.05;;
18019;SDS011;9135;48.362;10.878;2023-08-17T09:58:36;1.30;;;1.30;;
18019;SDS011;9135;48.362;10.878;2023-08-17T10:01:03;1.52;;;1.42;;
18019;SDS011;9135;48.362;10.878;2023-08-17T10:03:29;2.17;;;1.33;;
18019;SDS011;9135;48.362;10.878;2023-08-17T10:06:16;2.15;;;1.95;;
18019;SDS011;9135;48.362;10.878;2023-08-17T10:08:43;2.35;;;2.00;;
18019;SDS011;9135;48.362;10.878;2023-08-17T10:11:11;1.08;;;1.00;;
18019;SDS011;9135;48.362;10.878;2023-08-17T10:16:23;1.15;;;1.05;;
18019;SDS011;9135;48.362;10.878;2023-08-17T10:19:05;1.48;;;1.38;;
18019;SDS011;9135;48.362;10.878;2023-08-17T10:23:57;1.65;;;1.55;;
18019;SDS011;9135;48.362;10.878;2023-08-17T10:26:24;3.72;;;2.00;;
18019;SDS011;9135;48.362;10.878;2023-08-17T10:28:53;2.22;;;2.03;;
18019;SDS011;9135;48.362;10.878;2023-08-17T10:31:20;1.98;;;1.75;;
18019;SDS011;9135;48.362;10.878;2023-08-17T10:33:46;2.90;;;2.47;;
18019;SDS011;9135;48.362;10.878;2023-08-17T10:36:13;1.80;;;1.50;;
18019;SDS011;9135;48.362;10.878;2023-08-17T10:38:40;1.85;;;1.70;;
18019;SDS011;9135;48.362;10.878;2023-08-17T10:41:13;1.73;;;1.48;;
18019;SDS011;9135;48.362;10.878;2023-08-17T10:46:20;6.72;;;2.25;;
18019;SDS011;9135;48.362;10.878;2023-08-17T10:48:47;2.47;;;1.10;;
18019;SDS011;9135;48.362;10.878;2023-08-17T10:51:13;1.70;;;1.60;;
18019;SDS011;9135;48.362;10.878;2023-08-17T10:53:40;1.55;;;1.45;;
18019;SDS011;9135;48.362;10.878;2023-08-17T10:56:10;3.53;;;1.45;;
18019;SDS011;9135;48.362;10.878;2023-08-17T10:58:36;1.90;;;1.55;;
18019;SDS011;9135;48.362;10.878;2023-08-17T11:01:02;1.58;;;1.48;;
18019;SDS011;9135;48.362;10.878;2023-08-17T11:03:29;1.48;;;1.38;;
18019;SDS011;9135;48.362;10.878;2023-08-17T11:05:56;1.48;;;1.38;;
18019;SDS011;9135;48.362;10.878;2023-08-17T11:08:31;1.98;;;1.50;;
18019;SDS011;9135;48.362;10.878;2023-08-17T11:13:23;1.40;;;1.30;;
18019;SDS011;9135;48.362;10.878;2023-08-17T11:15:50;1.73;;;1.40;;
18019;SDS011;9135;48.362;10.878;2023-08-17T11:18:16;1.05;;;0.90;;
18019;SDS011;9135;48.362;10.878;2023-08-17T11:20:42;1.55;;;1.45;;
18019;SDS011;9135;48.362;10.878;2023-08-17T11:23:09;1.23;;;1.13;;
18019;SDS011;9135;48.362;10.878;2023-08-17T11:25:36;2.40;;;1.33;;
18019;SDS011;9135;48.362;10.878;2023-08-17T11:28:03;1.15;;;1.15;;
18019;SDS011;9135;48.362;10.878;2023-08-17T11:30:29;1.27;;;1.20;;
18019;SDS011;9135;48.362;10.878;2023-08-17T11:32:55;1.00;;;1.00;;
18019;SDS011;9135;48.362;10.878;2023-08-17T11:35:22;1.50;;;1.40;;
18019;SDS011;9135;48.362;10.878;2023-08-17T11:37:49;0.82;;;0.82;;
18019;SDS011;9135;48.362;10.878;2023-08-17T11:40:15;0.98;;;0.98;;
18019;SDS011;9135;48.362;10.878;2023-08-17T11:42:41;1.00;;;0.90;;
18019;SDS011;9135;48.362;10.878;2023-08-17T11:45:08;0.70;;;0.70;;
18019;SDS011;9135;48.362;10.878;2023-08-17T11:47:40;2.40;;;1.25;;
18019;SDS011;9135;48.362;10.878;2023-08-17T11:50:08;1.48;;;1.38;;
18019;SDS011;9135;48.362;10.878;2023-08-17T11:52:34;1.50;;;1.40;;
18019;SDS011;9135;48.362;10.878;2023-08-17T11:55:01;0.65;;;0.65;;
18019;SDS011;9135;48.362;10.878;2023-08-17T11:57:29;1.65;;;1.55;;
18019;SDS011;9135;48.362;10.878;2023-08-17T11:59:56;1.25;;;1.00;;
18019;SDS011;9135;48.362;10.878;2023-08-17T12:02:25;1.20;;;1.20;;
18019;SDS011;9135;48.362;10.878;2023-08-17T12:04:51;2.55;;;1.42;;
18019;SDS011;9135;48.362;10.878;2023-08-17T12:07:18;0.90;;;0.90;;
18019;SDS011;9135;48.362;10.878;2023-08-17T12:09:47;1.50;;;1.30;;
18019;SDS011;9135;48.362;10.878;2023-08-17T12:12:17;1.25;;;1.25;;
18019;SDS011;9135;48.362;10.878;2023-08-17T12:14:43;12.30;;;0.82;;
18019;SDS011;9135;48.362;10.878;2023-08-17T12:17:16;1.38;;;1.30;;
18019;SDS011;9135;48.362;10.878;2023-08-17T12:19:42;0.98;;;0.98;;
18019;SDS011;9135;48.362;10.878;2023-08-17T12:22:09;0.90;;;0.90;;
18019;SDS011;9135;48.362;10.878;2023-08-17T12:24:35;1.00;;;1.00;;
18019;SDS011;9135;48.362;10.878;2023-08-17T12:27:07;1.95;;;1.10;;
18019;SDS011;9135;48.362;10.878;2023-08-17T12:29:33;1.58;;;1.02;;
18019;SDS011;9135;48.362;10.878;2023-08-17T12:32:02;1.13;;;1.13;;
18019;SDS011;9135;48.362;10.878;2023-08-17T12:34:28;2.17;;;1.33;;
18019;SDS011;9135;48.362;10.878;2023-08-17T12:36:54;0.90;;;0.90;;
18019;SDS011;9135;48.362;10.878;2023-08-17T12:39:20;1.70;;;1.17;;
18019;SDS011;9135;48.362;10.878;2023-08-17T12:41:46;1.05;;;1.05;;
18019;SDS011;9135;48.362;10.878;2023-08-17T12:44:12;0.88;;;0.88;;
18019;SDS011;9135;48.362;10.878;2023-08-17T12:46:39;1.77;;;1.67;;
18019;SDS011;9135;48.362;10.878;2023-08-17T12:49:05;1.35;;;1.25;;
18019;SDS011;9135;48.362;10.878;2023-08-17T12:51:31;1.08;;;0.98;;
18019;SDS011;9135;48.362;10.878;2023-08-17T12:53:57;1.02;;;1.02;;
18019;SDS011;9135;48.362;10.878;2023-08-17T12:56:23;1.75;;;1.50;;
18019;SDS011;9135;48.362;10.878;2023-08-17T12:58:49;1.52;;;1.42;;
18019;SDS011;9135;48.362;10.878;2023-08-17T13:01:16;0.98;;;0.95;;
18019;SDS011;9135;48.362;10.878;2023-08-17T13:03:43;1.15;;;1.10;;
18019;SDS011;9135;48.362;10.878;2023-08-17T13:06:09;1.02;;;1.02;;
18019;SDS011;9135;48.362;10.878;2023-08-17T13:08:35;0.90;;;0.90;;
18019;SDS011;9135;48.362;10.878;2023-08-17T13:11:02;1.17;;;1.13;;
18019;SDS011;9135;48.362;10.878;2023-08-17T13:13:28;0.82;;;0.82;;
18019;SDS011;9135;48.362;10.878;2023-08-17T13:15:54;1.55;;;1.38;;
18019;SDS011;9135;48.362;10.878;2023-08-17T13:18:20;1.00;;;1.00;;
18019;SDS011;9135;48.362;10.878;2023-08-17T13:20:46;0.73;;;0.73;;
18019;SDS011;9135;48.362;10.878;2023-08-17T13:23:12;1.92;;;1.20;;
18019;SDS011;9135;48.362;10.878;2023-08-17T13:25:38;1.63;;;1.33;;
18019;SDS011;9135;48.362;10.878;2023-08-17T13:28:04;1.05;;;1.05;;
18019;SDS011;9135;48.362;10.878;2023-08-17T13:30:30;1.00;;;0.90;;
18019;SDS011;9135;48.362;10.878;2023-08-17T13:32:56;2.75;;;1.25;;
18019;SDS011;9135;48.362;10.878;2023-08-17T13:35:23;2.28;;;1.45;;
18019;SDS011;9135;48.362;10.878;2023-08-17T13:37:52;0.85;;;0.85;;
18019;SDS011;9135;48.362;10.878;2023-08-17T13:40:22;1.30;;;1.20;;
18019;SDS011;9135;48.362;10.878;2023-08-17T13:42:48;5.75;;;1.40;;
18019;SDS011;9135;48.362;10.878;2023-08-17T13:45:15;0.80;;;0.80;;
18019;SDS011;9135;48.362;10.878;2023-08-17T13:47:41;0.82;;;0.82;;
18019;SDS011;9135;48.362;10.878;2023-08-17T13:50:07;2.17;;;1.38;;
18019;SDS011;9135;48.362;10.878;2023-08-17T13:52:33;1.35;;;1.25;;
18019;SDS011;9135;48.362;10.878;2023-08-17T13:54:59;0.90;;;0.90;;
18019;SDS011;9135;48.362;10.878;2023-08-17T13:57:26;0.98;;;0.93;;
18019;SDS011;9135;48.362;10.878;2023-08-17T13:59:52;1.48;;;1.15;;
18019;SDS011;9135;48.362;10.878;2023-08-17T14:02:18;1.00;;;1.00;;
18019;SDS011;9135;48.362;10.878;2023-08-17T14:04:45;1.05;;;1.05;;
18019;SDS011;9135;48.362;10.878;2023-08-17T14:07:11;1.30;;;0.93;;
18019;SDS011;9135;48.362;10.878;2023-08-17T14:09:37;0.70;;;0.70;;
18019;SDS011;9135;48.362;10.878;2023-08-17T14:12:03;2.10;;;1.63;;
18019;SDS011;9135;48.362;10.878;2023-08-17T14:14:30;1.60;;;1.17;;
18019;SDS011;9135;48.362;10.878;2023-08-17T14:16:56;0.95;;;0.95;;
18019;SDS011;9135;48.362;10.878;2023-08-17T14:19:22;1.42;;;1.33;;
18019;SDS011;9135;48.362;10.878;2023-08-17T14:21:48;1.50;;;1.40;;
18019;SDS011;9135;48.362;10.878;2023-08-17T14:24:15;1.00;;;1.00;;
18019;SDS011;9135;48.362;10.878;2023-08-17T14:26:41;1.58;;;1.48;;
18019;SDS011;9135;48.362;10.878;2023-08-17T14:29:07;1.08;;;1.00;;
18019;SDS011;9135;48.362;10.878;2023-08-17T14:31:33;0.70;;;0.70;;
18019;SDS011;9135;48.362;10.878;2023-08-17T14:33:59;0.98;;;0.98;;
18019;SDS011;9135;48.362;10.878;2023-08-17T14:36:25;1.50;;;1.40;;
18019;SDS011;9135;48.362;10.878;2023-08-17T14:38:51;0.60;;;0.60;;
18019;SDS011;9135;48.362;10.878;2023-08-17T14:41:17;1.67;;;1.58;;
18019;SDS011;9135;48.362;10.878;2023-08-17T14:43:43;0.70;;;0.68;;
18019;SDS011;9135;48.362;10.878;2023-08-17T14:46:09;0.95;;;0.95;;
18019;SDS011;9135;48.362;10.878;2023-08-17T14:48:35;1.02;;;1.02;;
18019;SDS011;9135;48.362;10.878;2023-08-17T14:51:01;0.95;;;0.95;;
18019;SDS011;9135;48.362;10.878;2023-08-17T14:53:27;1.00;;;1.00;;
18019;SDS011;9135;48.362;10.878;2023-08-17T14:55:54;1.15;;;1.05;;
18019;SDS011;9135;48.362;10.878;2023-08-17T14:58:20;1.38;;;1.27;;